Latest Coastal Weather Observations for Portland Harbour

IDV60701

Issued at 2:11 pm EST Friday 29 April 2016 (issued every 10 minutes, with the page automatically refreshed every 10 minutes)

About coastal observations | Map of coastal stations | Coastal observations for VIC | Marine services | Other Formats
Station Details ID: 090192 Name: PORTLAND NTC AWS Lat: -38.34 Lon: 141.61 Height: 0.0 m
Data from the previous 72 hours. | See also: Recent months for locations in Victoria
Date/Time
EST
Temp

°C
Wind Pressure Rain
since 9am
mm
Weather Cloud Vis
km
Sea
Height
m
Swell
Dir
 
Speed
knots
Gust
knots
hPa Trend Height
m
Period
s
Dir
29/02:00pm 17.5 NNW 13 18 1009.7 - - - - - - - - -
29/01:30pm 16.6 NNW 11 17 1009.8 - - - - - - - - -
29/01:00pm 16.1 NNW 11 15 1010.0 - - - - - - - - -
29/12:30pm 15.9 NNW 12 15 1010.0 - - - - - - - - -
29/12:00pm 15.7 NNW 11 15 1010.6 - - - - - - - - -
29/11:30am 15.7 NNW 12 16 1010.9 - - - - - - - - -
29/11:00am 15.9 NW 12 18 1011.0 - - - - - - - - -
29/10:30am 16.2 NW 12 19 1011.0 - - - - - - - - -
29/10:00am 16.3 NNW 11 14 1011.1 - - - - - - - - -
29/09:30am 16.6 NNW 14 19 1011.1 - - - - - - - - -
29/09:00am 17.1 NNW 14 19 1011.2 - - - - - - - - -
29/08:30am 17.5 NNW 14 19 1011.0 - - - - - - - - -
29/08:00am 17.9 NNW 15 22 1010.8 - - - - - - - - -
29/07:30am 17.9 NNW 20 25 1010.7 - - - - - - - - -
29/07:00am 18.2 N 21 27 1010.4 - - - - - - - - -
29/06:30am 18.8 NNW 20 27 1010.7 - - - - - - - - -
29/06:00am 18.6 NNW 13 19 1010.9 - - - - - - - - -
29/05:30am 17.5 N 10 12 1011.3 - - - - - - - - -
29/05:00am 17.0 NNW 7 8 1011.2 - - - - - - - - -
29/04:30am 16.7 WNW 10 14 1011.9 - - - - - - - - -
29/04:00am 18.1 NNW 10 14 1010.7 - - - - - - - - -
29/03:30am 17.7 N 10 12 1010.3 - - - - - - - - -
29/03:00am 16.9 NE 9 11 1010.4 - - - - - - - - -
29/02:30am 16.6 NE 10 11 1010.8 - - - - - - - - -
29/02:00am 16.4 NE 9 11 1011.3 - - - - - - - - -
29/01:30am 16.2 ENE 7 7 1012.2 - - - - - - - - -
29/01:00am 15.9 NE 2 4 1012.9 - - - - - - - - -
29/12:30am 16.0 N 5 6 1013.5 - - - - - - - - -
29/12:00am 15.6 ENE 4 6 1013.2 - - - - - - - - -
 
Date/Time
EST
Temp

°C
Wind Pressure Rain
since 9am
mm
Weather Cloud Vis
km
Sea
Height
m
Swell
Dir
 
Speed
knots
Gust
knots
hPa Trend Height
m
Period
s
Dir
28/11:30pm 15.5 ENE 6 7 1013.6 - - - - - - - - -
28/11:00pm 15.7 NNE 6 8 1014.6 - - - - - - - - -
28/10:30pm 15.9 NE 10 11 1014.3 - - - - - - - - -
28/10:00pm 15.8 E 10 12 1014.5 - - - - - - - - -
28/09:30pm 15.9 ENE 8 10 1015.6 - - - - - - - - -
28/09:00pm 16.1 ENE 5 7 1015.9 - - - - - - - - -
28/08:30pm 16.4 NE 4 5 1016.4 - - - - - - - - -
28/08:00pm 16.4 E 7 8 1015.4 - - - - - - - - -
28/07:30pm 16.4 E 8 10 1015.2 - - - - - - - - -
28/07:00pm 16.3 E 9 11 1015.2 - - - - - - - - -
28/06:30pm 16.3 E 9 10 1015.3 - - - - - - - - -
28/06:00pm 16.3 E 6 8 1015.2 - - - - - - - - -
28/05:30pm 16.4 ESE 5 7 1015.3 - - - - - - - - -
28/05:00pm 16.5 ESE 6 7 1015.3 - - - - - - - - -
28/04:30pm 16.6 ESE 7 8 1015.9 - - - - - - - - -
28/04:00pm 16.9 SE 7 9 1015.8 - - - - - - - - -
28/03:30pm 17.3 SSE 4 5 1016.0 - - - - - - - - -
28/03:00pm 17.0 SSE 6 9 1016.2 - - - - - - - - -
28/02:30pm 17.1 S 8 10 1016.0 - - - - - - - - -
28/02:00pm 17.6 SSE 7 10 1016.2 - - - - - - - - -
28/01:30pm 18.0 SSW 5 7 1016.2 - - - - - - - - -
28/01:00pm 18.1 SSW 3 6 1016.6 - - - - - - - - -
28/12:30pm 17.9 SW 5 9 1016.7 - - - - - - - - -
28/12:00pm 17.3 SW 7 10 1016.9 - - - - - - - - -
28/11:30am 17.3 SW 8 12 1017.2 - - - - - - - - -
28/11:00am 17.2 WSW 8 11 1017.4 - - - - - - - - -
28/10:30am 17.0 WSW 9 13 1017.2 - - - - - - - - -
28/10:00am 16.8 WNW 6 8 1017.0 - - - - - - - - -
28/09:30am 16.3 WNW 7 9 1017.2 - - - - - - - - -
28/09:00am 16.1 NNW 5 6 1016.9 - - - - - - - - -
28/08:30am 15.8 NNW 6 8 1016.8 - - - - - - - - -
28/08:00am 15.9 NNW 4 5 1016.5 - - - - - - - - -
28/07:30am 15.7 NW 5 7 1015.8 - - - - - - - - -
28/07:00am 15.9 N 6 8 1015.7 - - - - - - - - -
28/06:30am 16.2 NNW 5 7 1015.3 - - - - - - - - -
28/06:00am 16.3 W 3 4 1015.0 - - - - - - - - -
28/05:30am 16.3 W 2 4 1014.5 - - - - - - - - -
28/05:00am 16.6 SW 3 3 1014.3 - - - - - - - - -
28/04:30am 16.2 W 1 3 1014.3 - - - - - - - - -
28/04:00am 16.4 W 5 7 1014.6 - - - - - - - - -
28/03:30am 16.6 WSW 6 8 1013.3 - - - - - - - - -
28/03:00am 16.9 WSW 7 10 1013.4 - - - - - - - - -
28/02:30am 17.0 WSW 4 5 1013.1 - - - - - - - - -
28/02:00am 17.8 NW 3 4 1013.2 - - - - - - - - -
28/01:30am 17.2 N 6 8 1013.4 - - - - - - - - -
28/01:00am 17.9 NNW 4 7 1013.1 - - - - - - - - -
28/12:30am 18.0 WSW 4 6 1012.9 - - - - - - - - -
28/12:00am 18.3 W 5 8 1013.3 - - - - - - - - -
 
Date/Time
EST
Temp

°C
Wind Pressure Rain
since 9am
mm
Weather Cloud Vis
km
Sea
Height
m
Swell
Dir
 
Speed
knots
Gust
knots
hPa Trend Height
m
Period
s
Dir
27/11:30pm 19.0 WNW 4 6 1012.9 - - - - - - - - -
27/11:00pm 19.4 NW 4 7 1013.2 - - - - - - - - -
27/10:30pm 19.8 NW 5 7 1012.8 - - - - - - - - -
27/10:00pm 19.9 WNW 6 9 1013.0 - - - - - - - - -
27/09:30pm 20.1 WNW 8 13 1013.0 - - - - - - - - -
27/09:00pm 20.1 W 12 18 1012.8 - - - - - - - - -
27/08:30pm 20.4 WSW 12 17 1012.8 - - - - - - - - -
27/08:00pm 23.1 W 8 13 1013.0 - - - - - - - - -
27/07:30pm 23.4 WNW 5 9 1012.5 - - - - - - - - -
27/07:00pm 24.2 WNW 7 10 1012.4 - - - - - - - - -
27/06:30pm 24.7 WNW 8 14 1012.1 - - - - - - - - -
27/06:00pm 25.3 NW 8 13 1011.2 - - - - - - - - -
27/05:30pm 25.9 NW 10 14 1011.0 - - - - - - - - -
27/05:00pm 26.2 NW 11 17 1011.0 - - - - - - - - -
27/04:30pm 26.5 NW 14 20 1010.8 - - - - - - - - -
27/04:00pm 26.0 NW 13 19 1010.8 - - - - - - - - -
27/03:47pm 26.2 NW 15 25 1010.7 - - - - - - - - -
27/03:30pm 26.3 NW 15 24 1010.7 - - - - - - - - -
27/03:11pm 25.6 NNW 16 29 1010.7 - - - - - - - - -
27/03:08pm 25.5 NNW 16 29 1010.5 - - - - - - - - -
27/03:00pm 26.1 NW 14 25 1010.7 - - - - - - - - -
27/02:30pm 25.2 NNW 17 23 1010.5 - - - - - - - - -
27/02:00pm 25.3 NNW 18 29 1010.6 - - - - - - - - -
27/01:57pm 25.1 NNW 17 29 1010.5 - - - - - - - - -
27/01:30pm 25.1 NNW 20 29 1010.6 - - - - - - - - -
27/01:13pm 26.0 NNW 21 33 1010.6 - - - - - - - - -
27/01:00pm 25.0 NNW 22 28 1010.9 - - - - - - - - -
27/12:34pm 25.1 NNW 21 31 1011.2 - - - - - - - - -
27/12:30pm 24.7 NNW 21 29 1011.3 - - - - - - - - -
27/12:00pm 24.2 NNW 24 37 1011.6 - - - - - - - - -
27/11:48am 24.8 NNW 25 35 1011.5 - - - - - - - - -
27/11:30am 24.0 N 24 31 1011.7 - - - - - - - - -
27/11:00am 23.4 NNW 25 32 1012.2 - - - - - - - - -
27/10:30am 22.3 N 22 27 1012.7 - - - - - - - - -
27/10:00am 21.7 NNW 24 32 1013.0 - - - - - - - - -
27/09:30am 21.3 N 22 29 1013.3 - - - - - - - - -
27/09:00am 21.2 N 21 27 1013.7 - - - - - - - - -
27/08:30am 20.4 N 19 25 1013.9 - - - - - - - - -
27/08:00am 19.9 N 14 20 1013.9 - - - - - - - - -
27/07:30am 19.8 N 15 20 1013.6 - - - - - - - - -
27/07:00am 20.1 N 16 20 1014.0 - - - - - - - - -
27/06:30am 20.1 N 16 19 1014.0 - - - - - - - - -
27/06:00am 20.2 N 17 22 1014.1 - - - - - - - - -
27/05:30am 20.1 N 14 18 1014.3 - - - - - - - - -
27/05:00am 19.4 N 13 18 1014.3 - - - - - - - - -
27/04:30am 19.4 N 13 15 1014.3 - - - - - - - - -
27/04:00am 19.6 N 13 17 1014.4 - - - - - - - - -
27/03:30am 19.9 N 15 19 1014.6 - - - - - - - - -
27/03:00am 20.0 N 16 19 1014.8 - - - - - - - - -
27/02:30am 19.9 N 13 18 1015.1 - - - - - - - - -
27/02:00am 19.7 N 11 14 1015.5 - - - - - - - - -
27/01:30am 18.8 N 7 10 1015.7 - - - - - - - - -
27/01:00am 18.7 N 5 8 1015.9 - - - - - - - - -
27/12:30am 18.1 N 6 7 1016.3 - - - - - - - - -
27/12:00am 18.5 N 8 9 1016.7 - - - - - - - - -
 
Date/Time
EST
Temp

°C
Wind Pressure Rain
since 9am
mm
Weather Cloud Vis
km
Sea
Height
m
Swell
Dir
 
Speed
knots
Gust
knots
hPa Trend Height
m
Period
s
Dir
26/11:30pm 18.9 N 9 10 1017.1 - - - - - - - - -
26/11:00pm 18.7 N 8 9 1017.5 - - - - - - - - -
26/10:30pm 18.0 N 5 5 1017.9 - - - - - - - - -
26/10:00pm 17.9 N 5 6 1018.0 - - - - - - - - -
26/09:30pm 18.7 NNW 5 6 1018.2 - - - - - - - - -
26/09:00pm 18.4 N 5 6 1018.3 - - - - - - - - -
26/08:30pm 19.4 N 5 6 1018.4 - - - - - - - - -
26/08:00pm 19.8 N 4 5 1018.6 - - - - - - - - -
26/07:30pm 20.6 N 5 6 1018.6 - - - - - - - - -
26/07:00pm 21.3 NNW 4 5 1018.8 - - - - - - - - -
26/06:30pm 22.1 N 4 5 1018.5 - - - - - - - - -
26/06:00pm 21.2 N 6 9 1018.3 - - - - - - - - -
26/05:30pm 21.2 N 9 12 1018.2 - - - - - - - - -
26/05:00pm 23.3 N 8 13 1018.3 - - - - - - - - -
26/04:30pm 21.9 N 9 12 1018.6 - - - - - - - - -
26/04:00pm 25.3 N 14 19 1018.8 - - - - - - - - -
26/03:30pm 26.1 NNW 11 17 1019.1 - - - - - - - - -
26/03:00pm 23.7 NNW 15 18 1019.3 - - - - - - - - -
26/02:30pm 22.9 N 12 18 1019.6 - - - - - - - - -

Other Formats:

Comma delimited format used in spreadsheet applications
http://www.bom.gov.au/fwo/IDV60701/IDV60701.95826.axf

JavaScript Object Notation format (JSON) in row-major order
http://www.bom.gov.au/fwo/IDV60701/IDV60701.95826.json